createdAt,value
2019-03-17T00:02:15.492Z,99304.88
2019-03-17T00:04:43.982Z,99308.64
2019-03-17T00:07:12.482Z,99296.81
2019-03-17T00:09:41.011Z,99293.55
2019-03-17T00:12:09.441Z,99285.72
2019-03-17T00:14:37.904Z,99288.61
2019-03-17T00:17:06.393Z,99281.94
2019-03-17T00:19:34.778Z,99264.70
2019-03-17T00:22:03.212Z,99265.67
2019-03-17T00:24:31.698Z,99277.85
2019-03-17T00:27:00.123Z,99268.57
2019-03-17T00:29:28.565Z,99262.75
2019-03-17T00:31:57.004Z,99265.27
2019-03-17T00:34:25.486Z,99254.72
2019-03-17T00:36:53.953Z,99260.73
2019-03-17T00:39:22.391Z,99240.80
2019-03-17T00:41:50.839Z,99256.52
2019-03-17T00:44:19.310Z,99257.30
2019-03-17T00:46:49.253Z,99255.91
2019-03-17T00:49:17.676Z,99251.00
2019-03-17T00:51:46.171Z,99250.49
2019-03-17T00:54:14.593Z,99249.61
2019-03-17T00:56:43.089Z,99240.93
2019-03-17T00:59:11.540Z,99231.98
2019-03-17T01:01:40.065Z,99242.56
2019-03-17T01:04:08.617Z,99232.59
2019-03-17T01:06:37.066Z,99226.67
2019-03-17T01:09:06.072Z,99222.33
2019-03-17T01:11:34.526Z,99227.73
2019-03-17T01:14:03.004Z,99217.66
2019-03-17T01:16:31.508Z,99214.27
2019-03-17T01:18:59.948Z,99206.61
2019-03-17T01:21:28.452Z,99203.11
2019-03-17T01:23:56.914Z,99199.23
2019-03-17T01:26:25.437Z,99195.36
2019-03-17T01:28:53.892Z,99199.01
2019-03-17T01:31:22.371Z,99191.45
2019-03-17T01:33:50.916Z,99191.87
2019-03-17T01:36:19.458Z,99190.98
2019-03-17T01:38:47.908Z,99183.80
2019-03-17T01:41:16.356Z,99181.57
2019-03-17T01:43:44.801Z,99174.80
2019-03-17T01:46:13.250Z,99178.95
2019-03-17T01:48:41.766Z,99168.00
2019-03-17T01:51:10.292Z,99150.01
2019-03-17T01:53:38.756Z,99158.34
2019-03-17T01:56:07.177Z,99144.09
2019-03-17T01:58:35.643Z,99144.09
2019-03-17T02:01:04.230Z,99135.00
2019-03-17T02:03:32.652Z,99132.02
2019-03-17T02:06:01.120Z,99139.56
2019-03-17T02:08:29.682Z,99137.80
2019-03-17T02:10:58.131Z,99134.53
2019-03-17T02:13:26.559Z,99121.44
2019-03-17T02:15:55.061Z,99118.45
2019-03-17T02:18:23.492Z,99119.70
2019-03-17T02:20:51.950Z,99113.70
2019-03-17T02:23:20.396Z,99107.88
2019-03-17T02:25:48.911Z,99092.77
2019-03-17T02:28:17.433Z,99099.06
2019-03-17T02:30:45.844Z,99088.16
2019-03-17T02:33:14.287Z,99095.47
2019-03-17T02:35:42.755Z,99085.53
2019-03-17T02:38:11.240Z,99076.31
2019-03-17T02:40:39.691Z,99071.64
2019-03-17T02:43:08.334Z,99076.95
2019-03-17T02:45:36.788Z,99075.09
2019-03-17T02:48:05.268Z,99080.80
2019-03-17T02:50:33.750Z,99072.42
2019-03-17T02:53:02.202Z,99050.95
2019-03-17T02:55:30.657Z,99067.14
2019-03-17T02:57:59.133Z,99080.50
2019-03-17T03:00:27.680Z,99087.33
2019-03-17T03:02:56.132Z,99080.95
2019-03-17T03:05:24.558Z,99072.05
2019-03-17T03:07:53.093Z,99060.23
2019-03-17T03:10:21.543Z,99070.36
2019-03-17T03:12:50.312Z,99070.03
2019-03-17T03:15:18.749Z,99064.70
2019-03-17T03:17:47.224Z,99062.39
2019-03-17T03:20:15.753Z,99072.81
2019-03-17T03:22:44.217Z,99064.30
2019-03-17T03:25:13.050Z,99061.05
2019-03-17T03:27:41.447Z,99065.59
2019-03-17T03:30:11.839Z,99064.48
2019-03-17T03:32:40.252Z,99060.25
2019-03-17T03:35:09.705Z,99057.56
2019-03-17T03:37:38.148Z,99050.11
2019-03-17T03:40:11.276Z,99043.27
2019-03-17T03:42:39.791Z,99038.94
2019-03-17T03:45:10.561Z,99029.58
2019-03-17T03:47:39.044Z,99038.09
2019-03-17T03:50:09.344Z,99043.32
2019-03-17T03:52:37.777Z,99032.98
2019-03-17T03:55:07.566Z,99019.14
2019-03-17T03:57:36.046Z,99023.80
2019-03-17T04:00:15.671Z,99024.03
2019-03-17T04:02:44.416Z,99023.75
2019-03-17T04:05:12.871Z,99016.48
2019-03-17T04:07:41.308Z,99019.69
2019-03-17T04:10:10.985Z,99013.40
2019-03-17T04:12:39.475Z,99006.32
2019-03-17T04:15:09.870Z,99007.95
2019-03-17T04:17:38.395Z,99006.98
2019-03-17T04:20:08.874Z,99003.39
2019-03-17T04:22:37.660Z,98996.63
2019-03-17T04:25:07.676Z,98994.11
2019-03-17T04:27:36.091Z,98990.34
2019-03-17T04:30:06.715Z,98994.11
2019-03-17T04:32:35.159Z,98995.66
2019-03-17T04:35:05.034Z,98964.67
2019-03-17T04:37:33.471Z,98970.90
2019-03-17T04:40:02.026Z,98971.37
2019-03-17T04:42:30.513Z,98947.28
2019-03-17T04:44:58.968Z,98986.06
2019-03-17T04:47:27.398Z,98959.92
2019-03-17T04:49:55.859Z,98973.25
2019-03-17T04:52:24.373Z,98966.05
2019-03-17T04:54:52.838Z,98975.64
2019-03-17T04:57:21.271Z,98973.91
2019-03-17T04:59:49.714Z,98980.02
2019-03-17T05:02:18.141Z,98981.09
2019-03-17T05:04:46.735Z,98945.55
2019-03-17T05:07:15.197Z,98981.22
2019-03-17T05:09:43.631Z,98982.28
2019-03-17T05:12:12.076Z,98968.07
2019-03-17T05:14:40.504Z,98959.86
2019-03-17T05:17:08.961Z,98960.14
2019-03-17T05:19:37.400Z,98970.39
2019-03-17T05:22:05.877Z,98963.55
2019-03-17T05:24:34.310Z,98968.45
2019-03-17T05:27:03.068Z,98974.36
2019-03-17T05:29:31.530Z,98966.81
2019-03-17T05:31:59.952Z,98977.86
2019-03-17T05:34:28.437Z,98962.94
2019-03-17T05:37:05.995Z,98972.25
2019-03-17T05:39:27.063Z,98975.84
2019-03-17T05:41:55.579Z,98987.55
2019-03-17T05:44:24.111Z,98985.12
2019-03-17T05:46:52.581Z,98975.93
2019-03-17T05:49:21.057Z,98987.63
2019-03-17T05:51:49.493Z,98990.15
2019-03-17T05:54:17.957Z,98984.73
2019-03-17T05:56:46.446Z,98991.53
2019-03-17T05:59:14.886Z,98986.50
2019-03-17T06:01:43.344Z,98991.62
2019-03-17T06:04:11.852Z,98974.73
2019-03-17T06:06:40.431Z,99001.19
2019-03-17T06:09:09.298Z,98991.03
2019-03-17T06:11:37.885Z,99000.13
2019-03-17T06:14:06.306Z,98987.07
2019-03-17T06:16:34.765Z,98988.98
2019-03-17T06:19:03.220Z,98995.66
2019-03-17T06:21:31.669Z,99011.63
2019-03-17T06:24:00.162Z,99011.50
2019-03-17T06:26:28.958Z,99015.56
2019-03-17T06:28:57.389Z,99023.80
2019-03-17T06:31:25.835Z,99012.48
2019-03-17T06:33:54.336Z,99014.89
2019-03-17T06:36:22.759Z,99010.52
2019-03-17T06:38:51.208Z,99014.43
2019-03-17T06:41:19.648Z,99021.85
2019-03-17T06:43:48.114Z,99018.58
2019-03-17T06:46:16.612Z,99016.06
2019-03-17T06:48:45.030Z,99034.94
2019-03-17T06:51:13.499Z,99035.03
2019-03-17T06:53:41.922Z,99028.84
2019-03-17T06:56:10.537Z,99028.36
2019-03-17T06:58:38.964Z,99027.11
2019-03-17T07:01:07.512Z,99034.19
2019-03-17T07:03:35.969Z,99029.95
2019-03-17T07:06:04.477Z,99030.36
2019-03-17T07:08:32.972Z,99039.64
2019-03-17T07:11:01.783Z,99038.28
2019-03-17T07:13:32.476Z,99045.64
2019-03-17T07:16:01.438Z,99041.27
2019-03-17T07:18:29.957Z,99030.12
2019-03-17T07:20:58.680Z,99051.02
2019-03-17T07:23:27.815Z,99057.81
2019-03-17T07:25:56.335Z,99053.44
2019-03-17T07:28:35.919Z,99058.55
2019-03-17T07:31:04.467Z,99065.31
2019-03-17T07:33:33.039Z,99056.19
2019-03-17T07:36:08.380Z,99055.48
2019-03-17T07:38:37.633Z,99060.09
2019-03-17T07:41:06.092Z,99052.81
2019-03-17T07:43:34.501Z,99056.53
2019-03-17T07:46:06.028Z,99055.27
2019-03-17T07:48:34.475Z,99063.70
2019-03-17T07:51:02.923Z,99061.97
2019-03-17T07:53:31.497Z,99059.83
2019-03-17T07:55:59.937Z,99056.66
2019-03-17T07:58:28.406Z,99064.03
2019-03-17T08:00:56.948Z,99055.05
2019-03-17T08:03:25.401Z,99026.02
2019-03-17T08:05:53.847Z,99060.73
2019-03-17T08:08:22.371Z,99077.08
2019-03-17T08:10:50.827Z,99066.36
2019-03-17T08:13:26.534Z,99070.73
2019-03-17T08:15:55.049Z,99045.18
2019-03-17T08:18:23.581Z,99065.85
2019-03-17T08:20:52.076Z,99075.91
2019-03-17T08:23:20.635Z,99074.28
2019-03-17T08:25:49.071Z,99075.77
2019-03-17T08:28:17.524Z,99072.00
2019-03-17T08:30:52.938Z,99078.48
2019-03-17T08:33:16.121Z,99080.91
2019-03-17T08:35:44.579Z,99079.28
2019-03-17T08:38:21.813Z,99084.51
2019-03-17T08:40:43.256Z,99082.88
2019-03-17T08:43:11.680Z,99083.39
2019-03-17T08:45:40.312Z,99097.23
2019-03-17T08:48:08.822Z,99094.34
2019-03-17T08:50:37.301Z,99117.69
2019-03-17T08:53:05.800Z,99105.30
2019-03-17T08:55:34.255Z,99098.44
2019-03-17T08:58:02.764Z,99124.63
2019-03-17T09:00:31.303Z,99119.73
2019-03-17T09:02:59.749Z,99160.98
2019-03-17T09:05:28.267Z,99207.04
2019-03-17T09:07:56.833Z,99235.01
2019-03-17T09:10:25.268Z,99210.20
2019-03-17T09:12:53.722Z,99253.01
2019-03-17T09:15:22.226Z,99260.59
2019-03-17T09:17:50.779Z,99264.41
2019-03-17T09:20:19.212Z,99270.20
2019-03-17T09:22:47.642Z,99271.67
2019-03-17T09:25:16.137Z,99263.43
2019-03-17T09:27:44.587Z,99266.48
2019-03-17T09:30:17.724Z,99275.76
2019-03-17T09:32:46.171Z,99277.35
2019-03-17T09:35:14.610Z,99273.58
2019-03-17T09:37:43.268Z,99272.79
2019-03-17T09:40:14.058Z,99272.79
2019-03-17T09:42:42.480Z,99265.39
2019-03-17T09:45:15.419Z,99265.92
2019-03-17T09:47:43.921Z,99258.62
2019-03-17T09:50:15.003Z,99264.15
2019-03-17T09:52:43.399Z,99272.52
2019-03-17T09:55:11.962Z,99277.70
2019-03-17T09:57:40.391Z,99289.03
2019-03-17T10:00:17.106Z,99297.48
2019-03-17T10:02:45.544Z,99297.99
2019-03-17T10:05:14.913Z,99296.84
2019-03-17T10:07:43.347Z,99293.53
2019-03-17T10:10:17.826Z,99291.05
2019-03-17T10:12:48.434Z,99298.44
2019-03-17T10:15:21.065Z,99299.80
2019-03-17T10:17:49.693Z,99310.10
2019-03-17T10:20:19.403Z,99294.67
2019-03-17T10:22:47.979Z,99313.02
2019-03-17T10:25:16.521Z,99300.80
2019-03-17T10:27:45.040Z,99313.53
2019-03-17T10:30:18.595Z,99312.60
2019-03-17T10:32:47.026Z,99301.25
2019-03-17T10:35:15.532Z,99311.56
2019-03-17T10:37:43.973Z,99316.17
2019-03-17T10:40:16.998Z,99327.95
2019-03-17T10:42:45.393Z,99327.06
2019-03-17T10:45:14.449Z,99334.29
2019-03-17T10:47:43.002Z,99345.13
2019-03-17T10:50:19.322Z,99331.61
2019-03-17T10:52:47.717Z,99334.34
2019-03-17T10:55:16.178Z,99333.97
2019-03-17T10:57:44.643Z,99341.78
2019-03-17T11:00:17.320Z,99341.15
2019-03-17T11:02:45.754Z,99350.73
2019-03-17T11:05:15.933Z,99350.30
2019-03-17T11:07:44.452Z,99360.59
2019-03-17T11:10:14.026Z,99357.89
2019-03-17T11:12:42.614Z,99343.82
2019-03-17T11:15:19.184Z,99364.34
2019-03-17T11:17:47.594Z,99364.61
2019-03-17T11:20:16.528Z,99360.70
2019-03-17T11:22:44.950Z,99347.37
2019-03-17T11:25:18.231Z,99348.91
2019-03-17T11:27:46.666Z,99359.22
2019-03-17T11:30:18.720Z,99378.29
2019-03-17T11:32:47.343Z,99365.80
2019-03-17T11:35:15.867Z,99386.22
2019-03-17T11:37:44.320Z,99389.39
2019-03-17T11:40:17.908Z,99372.01
2019-03-17T11:42:49.547Z,99360.97
2019-03-17T11:45:17.245Z,99364.38
2019-03-17T11:47:45.767Z,99356.02
2019-03-17T11:50:23.045Z,99360.72
2019-03-17T11:52:51.855Z,99367.01
2019-03-17T11:55:20.315Z,99370.50
2019-03-17T11:57:48.798Z,99370.66
2019-03-17T12:00:18.088Z,99378.56
2019-03-17T12:02:46.528Z,99365.98
2019-03-17T12:05:15.220Z,99371.50
2019-03-17T12:07:43.718Z,99357.36
2019-03-17T12:10:19.065Z,99361.23
2019-03-17T12:12:47.515Z,99382.45
2019-03-17T12:15:20.695Z,99380.52
2019-03-17T12:17:49.257Z,99373.33
2019-03-17T12:20:17.769Z,99382.63
2019-03-17T12:22:46.388Z,99367.02
2019-03-17T12:25:16.163Z,99374.41
2019-03-17T12:27:44.955Z,99376.55
2019-03-17T12:30:16.455Z,99389.02
2019-03-17T12:32:44.884Z,99389.60
2019-03-17T12:35:13.571Z,99386.66
2019-03-17T12:37:42.049Z,99384.88
2019-03-17T12:40:10.483Z,99387.16
2019-03-17T12:42:38.928Z,99380.46
2019-03-17T12:45:08.897Z,99394.51
2019-03-17T12:47:37.627Z,99398.18
2019-03-17T12:50:11.878Z,99394.62
2019-03-17T12:52:40.358Z,99379.96
2019-03-17T12:55:09.594Z,99367.30
2019-03-17T12:57:38.042Z,99381.70
2019-03-17T13:00:21.430Z,99379.64
2019-03-17T13:02:49.894Z,99384.21
2019-03-17T20:34:21.637Z,99987.45
2019-03-17T20:36:50.109Z,99983.84
2019-03-17T20:39:18.564Z,99987.59
2019-03-17T20:41:47.023Z,99987.80
2019-03-17T20:44:15.478Z,99989.80
2019-03-17T20:46:43.908Z,99990.59
2019-03-17T20:49:12.443Z,100005.36
2019-03-17T20:51:41.058Z,100005.84
2019-03-17T20:54:09.506Z,100005.84
2019-03-17T20:56:38.038Z,100011.54
2019-03-17T20:59:06.499Z,100013.47
2019-03-17T21:01:34.944Z,100013.00
2019-03-17T21:04:03.444Z,100016.05
2019-03-17T21:06:31.883Z,100021.86
2019-03-17T21:09:00.331Z,100021.86
2019-03-17T21:11:28.767Z,100020.33
2019-03-17T21:13:57.310Z,100020.33
2019-03-17T21:16:25.747Z,100026.81
2019-03-17T21:18:54.282Z,100027.27
2019-03-17T21:21:22.812Z,100031.01
2019-03-17T21:23:51.532Z,100024.77
2019-03-17T21:26:20.096Z,100022.98
2019-03-17T21:28:48.598Z,100024.79
2019-03-17T21:31:17.269Z,100037.91
2019-03-17T21:33:48.805Z,100037.91
2019-03-17T21:36:17.391Z,100039.92
2019-03-17T21:38:46.739Z,100052.12
2019-03-17T21:41:15.205Z,100052.89
2019-03-17T21:43:44.852Z,100051.49
2019-03-17T21:46:13.433Z,100044.77
2019-03-17T21:48:41.863Z,100048.91
2019-03-17T21:51:10.314Z,100045.16
2019-03-17T21:53:38.773Z,100045.16
2019-03-17T21:56:07.286Z,100039.63
2019-03-17T21:58:35.784Z,100045.66
2019-03-17T22:01:04.253Z,100047.17
2019-03-17T22:03:34.190Z,100047.17
2019-03-17T22:06:02.628Z,100059.66
2019-03-17T22:08:31.287Z,100065.49
2019-03-17T22:10:59.798Z,100064.60
2019-03-17T22:13:28.460Z,100074.59
2019-03-17T22:15:57.133Z,100073.75
2019-03-17T22:18:25.623Z,100073.66
2019-03-17T22:20:54.086Z,100077.81
2019-03-17T22:23:22.547Z,100083.37
2019-03-17T22:25:50.990Z,100078.24
2019-03-17T22:28:19.841Z,100078.24
2019-03-17T22:30:48.484Z,100080.92
2019-03-17T22:33:17.006Z,100092.33
2019-03-17T22:35:45.485Z,100084.34
2019-03-17T22:38:13.923Z,100090.23
2019-03-17T22:40:42.394Z,100089.25
2019-03-17T22:43:10.936Z,100097.13
2019-03-17T22:45:39.374Z,100093.38
2019-03-17T22:48:07.871Z,100085.20
2019-03-17T22:50:36.432Z,100089.25
2019-03-17T22:53:05.003Z,100089.25
2019-03-17T22:55:33.529Z,100098.13
2019-03-17T22:58:01.969Z,100102.28
2019-03-17T23:00:34.797Z,100101.77
2019-03-17T23:03:03.488Z,100096.98
2019-03-17T23:05:32.114Z,100099.34
2019-03-17T23:08:00.504Z,100097.05
2019-03-17T23:10:28.982Z,100105.83
2019-03-17T23:12:57.406Z,100111.17
2019-03-17T23:15:25.844Z,100113.05
2019-03-17T23:17:54.279Z,100113.05
2019-03-17T23:20:22.756Z,100115.00
2019-03-17T23:22:51.193Z,100117.84
2019-03-17T23:25:19.693Z,100112.25
2019-03-17T23:27:48.404Z,100110.61
2019-03-17T23:30:18.951Z,100113.30
2019-03-17T23:32:49.152Z,100117.63
2019-03-17T23:35:18.241Z,100106.45
2019-03-17T23:37:46.865Z,100117.67
2019-03-17T23:40:16.535Z,100112.69
2019-03-17T23:42:45.156Z,100116.08
2019-03-17T23:45:14.520Z,100114.52
2019-03-17T23:47:43.168Z,100129.33
2019-03-17T23:50:15.189Z,100122.91
2019-03-17T23:52:43.960Z,100124.20
2019-03-17T23:55:14.625Z,100127.42
2019-03-17T23:57:43.135Z,100132.96
